Stephenville, Canada
Current Conditions -  °F | °C
As of 10:31 AM on Sunday 23 Nov 2014 (Local Time) from CYJT Reporting Station
Overcast Overcast  
Wind Chill: 24°   Ceiling: 1600
Heat Index: 36°   Visibility: 15mi
Dew Point: 30°   Wind: 23mph
Humidity: 81%   Direction: 270°W
Pressure: 29.7"   Gusts: 31mph
Location:  48.55°N, 58.58°W
Report Text: CYJT 231331Z 27020G27KT 15SM OVC016 02/M01 A2970 RMK SC8 SLP057
Loading
Personal Weather Stations






























Interactive Weather Map New forecast layout! Learn more

10-Day Weather Forecast

Advertisements
Track Severe Weather on mobile